Time;durP1;ratioP1;P1;durP2;ratioP2;P2;SDS_P1;SDS_P2;PMS_P1;PMS_P2;Temp;Humidity;BMP_temperature;BMP_pressure;BME280_temperature;BME280_humidity;BME280_pressure;Samples;Min_cycle;Max_cycle;Signal;HPM_P1;HPM_P2
2022/03/30 00:01:55;;;;;;;10.88;2.97;;;23.60;99.90;;;;;;5036367;28;20370;-75
2022/03/30 00:04:23;;;;;;;9.95;2.35;;;23.40;99.90;;;;;;5036511;28;20453;-76
2022/03/30 00:06:50;;;;;;;13.32;2.88;;;23.30;99.90;;;;;;5036347;28;20021;-76
2022/03/30 00:09:17;;;;;;;13.93;2.40;;;23.30;99.90;;;;;;5053649;28;20024;-76
2022/03/30 00:11:45;;;;;;;11.35;2.42;;;23.30;99.90;;;;;;5053238;28;20029;-75
2022/03/30 00:14:12;;;;;;;8.63;2.30;;;23.30;99.90;;;;;;5053494;28;20075;-76
2022/03/30 00:16:40;;;;;;;9.68;2.28;;;23.40;99.90;;;;;;5052285;28;20045;-77
2022/03/30 00:19:08;;;;;;;10.07;2.42;;;23.20;99.90;;;;;;5035118;28;20025;-75
2022/03/30 00:21:36;;;;;;;7.32;2.42;;;23.20;99.90;;;;;;5053153;28;20027;-75
2022/03/30 00:24:03;;;;;;;8.98;2.30;;;23.20;99.90;;;;;;5053049;28;20468;-75
2022/03/30 00:26:31;;;;;;;9.48;1.92;;;23.30;99.90;;;;;;5053116;28;20427;-75
2022/03/30 00:28:58;;;;;;;11.73;2.75;;;23.70;99.90;;;;;;5052857;28;20426;-75
2022/03/30 00:31:26;;;;;;;9.30;2.58;;;23.80;99.90;;;;;;5052901;28;20036;-75
2022/03/30 00:33:53;;;;;;;10.05;2.40;;;24.00;99.90;;;;;;5052816;28;20018;-75
2022/03/30 00:36:21;;;;;;;8.80;2.65;;;24.30;99.90;;;;;;5034767;28;20026;-76
2022/03/30 00:38:48;;;;;;;6.72;1.80;;;24.30;99.90;;;;;;5052742;28;20029;-76
2022/03/30 00:41:16;;;;;;;12.75;3.10;;;24.40;99.90;;;;;;5034783;28;20065;-75
2022/03/30 00:43:43;;;;;;;9.73;2.50;;;24.40;99.90;;;;;;5034684;28;20078;-76
2022/03/30 00:46:12;;;;;;;9.18;3.25;;;24.10;99.90;;;;;;5052565;28;20036;-75
2022/03/30 00:48:42;;;;;;;13.20;2.53;;;24.20;99.90;;;;;;5052502;28;20366;-75
2022/03/30 00:51:09;;;;;;;;;;;24.20;99.90;;;;;;5053032;28;20516;-74
2022/03/30 00:53:36;;;;;;;9.15;2.20;;;23.90;99.90;;;;;;5052338;28;19908;-75
2022/03/30 00:56:06;;;;;;;9.02;2.35;;;23.40;99.90;;;;;;5052539;28;20075;-75
2022/03/30 00:58:34;;;;;;;7.78;2.28;;;23.20;99.90;;;;;;5034356;28;20032;-75
2022/03/30 01:01:02;;;;;;;8.88;2.90;;;23.40;99.90;;;;;;5052286;28;20032;-77
2022/03/30 01:03:30;;;;;;;9.73;3.13;;;23.40;99.90;;;;;;5034123;28;20028;-76
2022/03/30 01:05:57;;;;;;;10.77;3.33;;;23.60;99.90;;;;;;5052209;28;20049;-76
2022/03/30 01:08:24;;;;;;;12.27;3.20;;;23.90;99.90;;;;;;5034082;28;20021;-75
2022/03/30 01:10:53;;;;;;;10.20;3.13;;;24.30;99.90;;;;;;5052092;28;20075;-75
2022/03/30 01:13:21;;;;;;;9.88;2.47;;;24.40;99.90;;;;;;5052028;28;20078;-76
2022/03/30 01:15:48;;;;;;;10.82;2.47;;;24.50;99.90;;;;;;5034094;28;20025;-76
2022/03/30 01:18:16;;;;;;;12.75;3.40;;;24.40;99.90;;;;;;5033878;28;20461;-76
2022/03/30 01:20:51;;;;;;;10.30;3.13;;;24.50;99.90;;;;;;5052011;28;20372;-76
2022/03/30 01:23:18;;;;;;;6.85;2.30;;;24.60;99.90;;;;;;5034008;28;20036;-76
2022/03/30 01:25:46;;;;;;;9.48;2.47;;;24.60;99.90;;;;;;5052125;28;20029;-76
2022/03/30 01:28:13;;;;;;;7.20;2.03;;;24.70;99.90;;;;;;5051579;28;20024;-76
2022/03/30 01:33:26;;;;;;;7.95;2.30;;;24.80;99.90;;;;;;5051778;28;20511;-76
2022/03/30 01:35:54;;;;;;;8.32;2.20;;;25.00;99.90;;;;;;5033631;28;20116;-75
2022/03/30 01:38:21;;;;;;;6.22;1.85;;;25.30;99.90;;;;;;5033579;28;20025;-75
2022/03/30 01:40:49;;;;;;;4.07;1.48;;;25.30;99.90;;;;;;5051758;28;20116;-76
2022/03/30 01:43:16;;;;;;;2.67;1.42;;;25.10;99.90;;;;;;5033654;28;20553;-77
2022/03/30 01:45:43;;;;;;;4.10;1.48;;;25.20;99.90;;;;;;5051503;28;20028;-76
2022/03/30 01:48:11;;;;;;;3.53;1.30;;;25.30;99.90;;;;;;5034565;28;20036;-75
2022/03/30 01:50:38;;;;;;;4.43;1.60;;;25.20;99.90;;;;;;5052733;28;20017;-76
2022/03/30 01:53:05;;;;;;;5.43;1.60;;;25.00;99.90;;;;;;5034543;28;20389;-76
2022/03/30 01:55:33;;;;;;;4.80;2.03;;;24.70;99.90;;;;;;5052414;28;20075;-76
2022/03/30 01:58:01;;;;;;;5.93;1.98;;;24.30;99.90;;;;;;5034487;28;20036;-76
2022/03/30 02:00:29;;;;;;;5.22;2.28;;;23.90;99.90;;;;;;5052318;28;20032;-74
2022/03/30 02:02:56;;;;;;;6.53;2.70;;;23.50;99.90;;;;;;5052326;28;20078;-74
2022/03/30 02:05:24;;;;;;;6.85;2.83;;;23.10;99.90;;;;;;5034123;28;20520;-74
2022/03/30 02:07:51;;;;;;;5.95;3.17;;;22.80;99.90;;;;;;5052209;28;20021;-74
2022/03/30 02:10:19;;;;;;;7.28;3.10;;;22.70;99.90;;;;;;5052173;28;20021;-74
2022/03/30 02:12:46;;;;;;;6.03;3.20;;;22.50;99.90;;;;;;5034407;28;20028;-74
2022/03/30 02:15:13;;;;;;;10.18;3.78;;;22.60;99.90;;;;;;5052096;28;20021;-74
2022/03/30 02:17:41;;;;;;;6.47;3.38;;;23.00;99.90;;;;;;5034094;28;20049;-74
2022/03/30 02:20:11;;;;;;;9.05;2.88;;;23.70;99.90;;;;;;5034094;28;20132;-74
2022/03/30 02:22:40;;;;;;;7.57;3.25;;;23.70;99.90;;;;;;5052024;28;20029;-75
2022/03/30 02:25:08;;;;;;;9.77;2.75;;;23.50;99.90;;;;;;5052052;28;20033;-74
2022/03/30 02:27:37;;;;;;;9.35;3.67;;;23.60;99.90;;;;;;5051958;28;20473;-74
2022/03/30 02:30:05;;;;;;;6.55;2.80;;;23.70;99.90;;;;;;5033873;28;20027;-74
2022/03/30 02:32:34;;;;;;;7.03;2.85;;;23.70;99.90;;;;;;5034336;28;20025;-75
2022/03/30 02:35:02;;;;;;;6.25;2.33;;;23.80;99.90;;;;;;5033946;28;20021;-74
2022/03/30 02:37:29;;;;;;;8.65;2.75;;;24.00;99.90;;;;;;5051915;28;20495;-75
2022/03/30 02:39:56;;;;;;;5.65;2.00;;;24.30;99.90;;;;;;5052232;28;20056;-74
2022/03/30 02:42:25;;;;;;;5.85;2.10;;;24.30;99.90;;;;;;5055908;28;20385;-74
2022/03/30 02:44:52;;;;;;;7.15;2.58;;;24.30;99.90;;;;;;5055834;28;20029;-74
2022/03/30 02:48:17;;;;;;;4.47;2.28;;;24.20;99.90;;;;;;5055768;28;20428;-74
2022/03/30 02:50:07;;;;;;;8.38;2.45;;;24.10;99.90;;;;;;5055654;28;20021;-74
2022/03/30 02:52:35;;;;;;;8.93;2.72;;;23.90;99.90;;;;;;5055715;28;20025;-75
2022/03/30 02:55:02;;;;;;;6.43;2.45;;;23.80;99.90;;;;;;5037741;28;20025;-75
2022/03/30 02:57:29;;;;;;;8.93;2.88;;;23.90;99.90;;;;;;5037707;28;20397;-74
2022/03/30 02:59:56;;;;;;;7.97;3.20;;;23.90;99.90;;;;;;5055696;28;20025;-76
2022/03/30 03:02:24;;;;;;;6.00;3.03;;;23.80;99.90;;;;;;5055484;28;20021;-76
2022/03/30 03:04:51;;;;;;;7.65;2.90;;;23.90;99.90;;;;;;5055427;28;20444;-82
2022/03/30 03:07:19;;;;;;;6.78;2.90;;;23.80;99.90;;;;;;5037521;28;20021;-77
2022/03/30 03:09:46;;;;;;;8.88;3.72;;;23.50;99.90;;;;;;5037447;28;20021;-75
2022/03/30 03:12:13;;;;;;;6.63;2.88;;;23.50;99.90;;;;;;5055339;28;20083;-76
2022/03/30 03:14:41;;;;;;;7.10;2.95;;;23.60;99.90;;;;;;5037453;28;20470;-75
2022/03/30 03:17:08;;;;;;;7.22;3.30;;;23.70;99.90;;;;;;5055082;28;20122;-75
2022/03/30 03:19:35;;;;;;;7.55;3.55;;;23.80;99.90;;;;;;5037388;28;20021;-75
2022/03/30 03:22:04;;;;;;;6.82;2.80;;;23.90;99.90;;;;;;5037238;28;20056;-75
2022/03/30 03:24:32;;;;;;;8.07;3.10;;;23.90;99.90;;;;;;5037193;28;20059;-76
2022/03/30 03:26:59;;;;;;;6.38;2.45;;;23.90;99.90;;;;;;5037246;28;20025;-75
2022/03/30 03:29:27;;;;;;;9.38;3.22;;;23.70;99.90;;;;;;5055124;28;20025;-75
2022/03/30 03:31:55;;;;;;;8.60;3.20;;;23.60;99.90;;;;;;5055088;28;20029;-75
2022/03/30 03:34:23;;;;;;;6.85;3.08;;;23.60;99.90;;;;;;5055029;28;20032;-76
2022/03/30 03:36:50;;;;;;;4.63;2.60;;;23.70;99.90;;;;;;5036873;28;20029;-76
2022/03/30 03:39:18;;;;;;;7.60;2.75;;;23.60;99.90;;;;;;5036951;28;20068;-76
2022/03/30 03:41:45;;;;;;;8.05;3.13;;;23.60;99.90;;;;;;5036932;28;20108;-76
2022/03/30 03:44:13;;;;;;;7.07;2.40;;;23.70;99.90;;;;;;5036817;28;20025;-76
2022/03/30 03:46:41;;;;;;;5.05;2.28;;;23.60;99.90;;;;;;5054734;28;20029;-75
2022/03/30 03:49:08;;;;;;;7.22;2.75;;;23.60;99.90;;;;;;5054596;28;20108;-76
2022/03/30 03:51:35;;;;;;;6.00;2.30;;;23.70;99.90;;;;;;5035503;28;20025;-75
2022/03/30 03:54:03;;;;;;;5.50;2.55;;;23.70;99.90;;;;;;5036352;28;20049;-76
2022/03/30 03:56:31;;;;;;;7.25;2.45;;;23.80;99.90;;;;;;5054527;28;20020;-75
2022/03/30 03:58:58;;;;;;;5.45;1.98;;;23.60;99.90;;;;;;5054337;28;20431;-74
2022/03/30 04:01:27;;;;;;;6.45;2.05;;;23.80;99.90;;;;;;5054434;28;20082;-75
2022/03/30 04:03:54;;;;;;;7.10;2.15;;;24.00;99.90;;;;;;5054249;28;20028;-75
2022/03/30 04:06:22;;;;;;;4.15;1.70;;;23.90;99.90;;;;;;5054346;28;20063;-75
2022/03/30 04:08:50;;;;;;;6.00;2.00;;;23.90;99.90;;;;;;5054220;28;20033;-74
2022/03/30 04:11:17;;;;;;;3.83;2.20;;;24.00;99.90;;;;;;5054277;28;20021;-74
2022/03/30 04:13:45;;;;;;;5.30;2.10;;;23.90;99.90;;;;;;5054148;28;20019;-75
2022/03/30 04:16:13;;;;;;;4.22;2.25;;;24.20;99.90;;;;;;5036008;28;20021;-75
2022/03/30 04:18:40;;;;;;;5.55;2.30;;;24.40;99.90;;;;;;5036173;28;20029;-75
2022/03/30 04:21:07;;;;;;;4.22;2.00;;;24.30;99.90;;;;;;5036243;28;20021;-75
2022/03/30 04:23:35;;;;;;;3.80;1.80;;;24.20;99.90;;;;;;5053896;28;20024;-75
2022/03/30 04:26:02;;;;;;;3.78;2.05;;;24.20;99.90;;;;;;5053983;28;20036;-75
2022/03/30 04:28:30;;;;;;;3.08;1.70;;;24.10;99.90;;;;;;5035930;28;20021;-75
2022/03/30 04:30:57;;;;;;;4.15;2.03;;;24.00;99.90;;;;;;5035859;28;20051;-76
2022/03/30 04:33:25;;;;;;;3.78;1.80;;;23.80;99.90;;;;;;5035690;28;20109;-75
2022/03/30 04:35:52;;;;;;;3.63;2.20;;;23.90;99.90;;;;;;5053870;28;20448;-75
2022/03/30 04:38:19;;;;;;;3.25;1.88;;;23.70;99.90;;;;;;5035683;28;20032;-74
2022/03/30 04:40:47;;;;;;;3.53;1.98;;;23.70;99.90;;;;;;5035767;28;20119;-75
2022/03/30 04:43:14;;;;;;;3.95;2.00;;;23.70;99.90;;;;;;5053713;28;20078;-75
2022/03/30 04:45:41;;;;;;;4.20;2.08;;;23.80;99.90;;;;;;5053894;28;20112;-78
2022/03/30 04:48:09;;;;;;;3.72;1.63;;;24.00;99.90;;;;;;5036327;28;20055;-81
2022/03/30 04:50:36;;;;;;;3.78;1.70;;;24.20;99.90;;;;;;5041529;28;20032;-79
2022/03/30 04:53:04;;;;;;;6.68;1.85;;;24.60;99.90;;;;;;5037582;28;20021;-78
2022/03/30 04:55:31;;;;;;;4.28;1.65;;;24.70;99.90;;;;;;5054766;28;20017;-77
2022/03/30 04:57:59;;;;;;;4.90;2.10;;;24.60;99.90;;;;;;5053986;28;20070;-77
2022/03/30 05:00:27;;;;;;;5.53;1.70;;;24.10;99.90;;;;;;5036079;28;20025;-77
2022/03/30 05:02:54;;;;;;;3.67;1.70;;;23.70;99.90;;;;;;5035785;28;20394;-78
2022/03/30 05:05:21;;;;;;;5.10;1.80;;;23.60;99.90;;;;;;5035898;28;20123;-76
2022/03/30 05:07:49;;;;;;;6.18;2.05;;;23.40;99.90;;;;;;5035475;28;20066;-77
2022/03/30 05:10:17;;;;;;;6.15;1.85;;;23.30;99.90;;;;;;5053882;28;20078;-78
2022/03/30 05:12:44;;;;;;;5.43;1.58;;;23.20;99.90;;;;;;5053916;28;20048;-77
2022/03/30 05:15:12;;;;;;;8.13;2.30;;;23.10;99.90;;;;;;5036251;28;20033;-78
2022/03/30 05:17:41;;;;;;;6.95;2.28;;;23.00;99.90;;;;;;5035631;28;20404;-78
2022/03/30 05:20:13;;;;;;;6.20;1.90;;;23.00;99.90;;;;;;5054344;28;20021;-78
2022/03/30 05:22:41;;;;;;;4.30;1.92;;;23.10;99.90;;;;;;5036102;28;20063;-77
2022/03/30 05:25:09;;;;;;;6.25;2.05;;;23.00;99.90;;;;;;5055911;28;20051;-78
2022/03/30 05:27:39;;;;;;;8.45;2.20;;;23.00;99.90;;;;;;5054518;28;20021;-77
2022/03/30 05:30:07;;;;;;;8.60;2.40;;;22.80;99.90;;;;;;5054651;28;20024;-78
2022/03/30 05:32:35;;;;;;;8.07;3.05;;;22.70;99.90;;;;;;5037037;28;20254;-78
2022/03/30 05:35:03;;;;;;;5.72;2.13;;;22.60;99.90;;;;;;5039069;28;20088;-77
2022/03/30 05:37:32;;;;;;;6.65;2.28;;;22.70;99.90;;;;;;5039897;28;20454;-79
2022/03/30 05:40:00;;;;;;;5.82;2.40;;;22.60;99.90;;;;;;5058629;28;20024;-79
2022/03/30 05:42:27;;;;;;;7.18;2.60;;;22.70;99.90;;;;;;5039385;28;20029;-78
2022/03/30 05:44:54;;;;;;;5.63;2.72;;;22.60;99.90;;;;;;5040383;28;20025;-78
2022/03/30 05:47:22;;;;;;;7.32;2.40;;;22.60;99.90;;;;;;5057251;28;20031;-78
2022/03/30 05:49:49;;;;;;;6.15;2.53;;;22.70;99.90;;;;;;5038416;28;20025;-77
2022/03/30 05:52:17;;;;;;;8.10;2.83;;;22.60;99.90;;;;;;5039091;28;20112;-77
2022/03/30 05:54:44;;;;;;;7.90;2.70;;;22.70;99.90;;;;;;5038625;28;20025;-78
2022/03/30 05:57:12;;;;;;;8.25;2.65;;;22.60;99.90;;;;;;5037348;28;20017;-78
2022/03/30 05:59:42;;;;;;;7.40;2.67;;;22.50;99.90;;;;;;5034968;28;20047;-77
2022/03/30 06:02:12;;;;;;;6.03;2.50;;;22.50;99.90;;;;;;5034421;28;20025;-78
2022/03/30 06:04:41;;;;;;;5.70;2.10;;;22.40;99.90;;;;;;5034412;28;20051;-77
2022/03/30 06:07:10;;;;;;;5.53;2.70;;;22.30;99.90;;;;;;5053562;28;20039;-80
2022/03/30 06:09:38;;;;;;;6.68;2.28;;;22.20;99.90;;;;;;5034206;28;20029;-76
2022/03/30 06:12:06;;;;;;;5.22;1.85;;;22.30;99.90;;;;;;5034049;28;20056;-80
2022/03/30 06:14:34;;;;;;;6.28;1.92;;;22.30;99.90;;;;;;5033684;28;20072;-75
2022/03/30 06:17:04;;;;;;;4.80;2.03;;;22.40;99.90;;;;;;5033770;28;20076;-79
2022/03/30 06:19:33;;;;;;;5.78;1.60;;;22.20;99.90;;;;;;5034376;28;20028;-78
2022/03/30 06:22:08;;;;;;;3.72;1.63;;;22.10;99.90;;;;;;5034479;28;20029;-79
2022/03/30 06:24:40;;;;;;;5.47;1.70;;;22.20;99.90;;;;;;5034292;28;20021;-79
2022/03/30 06:27:09;;;;;;;4.45;1.98;;;22.20;99.90;;;;;;5034631;28;20393;-79
2022/03/30 06:29:39;;;;;;;6.78;1.77;;;22.10;99.90;;;;;;5034063;28;20021;-77
2022/03/30 06:32:07;;;;;;;4.68;1.55;;;22.20;99.90;;;;;;5034056;28;20022;-78
2022/03/30 06:34:35;;;;;;;5.20;2.13;;;22.10;99.90;;;;;;5034192;28;20477;-78
2022/03/30 06:37:05;;;;;;;3.42;1.85;;;22.10;99.90;;;;;;5051849;28;20029;-76
2022/03/30 06:39:33;;;;;;;5.07;1.83;;;22.10;99.90;;;;;;5052023;28;20021;-77
2022/03/30 06:42:01;;;;;;;3.85;1.40;;;22.10;99.90;;;;;;5051760;28;20025;-79
2022/03/30 06:44:28;;;;;;;3.28;2.30;;;22.20;99.90;;;;;;5052224;28;20021;-77
2022/03/30 06:46:56;;;;;;;5.90;1.70;;;22.40;99.90;;;;;;5052301;28;20017;-79
2022/03/30 06:49:23;;;;;;;6.03;2.00;;;22.30;99.90;;;;;;5051979;28;20095;-78
2022/03/30 06:51:52;;;;;;;4.97;1.88;;;22.30;99.90;;;;;;5051957;28;20447;-80
2022/03/30 06:54:19;;;;;;;3.58;1.48;;;22.10;99.90;;;;;;5052680;28;20021;-78
2022/03/30 06:56:47;;;;;;;5.70;1.77;;;22.20;99.90;;;;;;5034838;28;20029;-79
2022/03/30 06:59:14;;;;;;;5.35;1.55;;;22.20;99.90;;;;;;5034772;28;20078;-78
2022/03/30 07:01:42;;;;;;;3.20;1.42;;;22.20;99.90;;;;;;5052227;28;20076;-80
2022/03/30 07:04:09;;;;;;;3.13;1.40;;;22.10;99.90;;;;;;5052770;28;20108;-79
2022/03/30 07:06:36;;;;;;;3.10;1.40;;;22.10;99.90;;;;;;5034262;28;20087;-79
2022/03/30 07:11:49;;;;;;;3.45;1.15;;;21.90;99.90;;;;;;5051944;28;20068;-77
2022/03/30 07:14:16;;;;;;;3.00;1.60;;;21.90;99.90;;;;;;5033710;28;20581;-78
2022/03/30 07:16:44;;;;;;;2.17;1.30;;;21.70;99.90;;;;;;5030220;28;20045;-78
2022/03/30 07:19:11;;;;;;;1.90;1.33;;;21.70;99.90;;;;;;5031624;28;20105;-77
2022/03/30 07:21:39;;;;;;;3.88;1.50;;;21.60;99.90;;;;;;5030571;28;20473;-76
2022/03/30 07:24:07;;;;;;;3.53;1.58;;;21.50;99.90;;;;;;5031583;28;20072;-77
2022/03/30 07:26:35;;;;;;;5.25;2.05;;;21.50;99.90;;;;;;5032824;28;20132;-77
2022/03/30 07:29:02;;;;;;;4.80;2.28;;;21.40;99.90;;;;;;5035096;28;20390;-77
2022/03/30 07:31:30;;;;;;;4.85;2.70;;;21.40;99.90;;;;;;5034988;28;20020;-77
2022/03/30 07:33:57;;;;;;;6.07;2.13;;;21.40;99.90;;;;;;5033655;28;20386;-77
2022/03/30 07:36:24;;;;;;;5.97;2.92;;;21.30;99.90;;;;;;5033838;28;20481;-77
2022/03/30 07:38:52;;;;;;;5.95;3.00;;;21.30;99.90;;;;;;5034907;28;20105;-77
2022/03/30 07:41:20;;;;;;;4.88;2.90;;;21.20;99.90;;;;;;5033569;28;20037;-77
2022/03/30 07:43:47;;;;;;;5.15;3.53;;;21.20;99.90;;;;;;5034931;28;20105;-77
2022/03/30 07:46:15;;;;;;;6.57;3.25;;;21.10;99.90;;;;;;5034862;28;20021;-76
2022/03/30 07:48:42;;;;;;;6.18;3.53;;;21.10;99.90;;;;;;5034693;28;20021;-78
2022/03/30 07:51:10;;;;;;;7.20;3.10;;;21.00;99.90;;;;;;5033405;28;20026;-77
2022/03/30 07:53:37;;;;;;;7.32;4.15;;;20.90;99.90;;;;;;5034550;28;20037;-78
2022/03/30 07:56:05;;;;;;;6.70;3.42;;;20.90;99.90;;;;;;5034639;28;20492;-77
2022/03/30 07:58:32;;;;;;;6.15;3.58;;;20.90;99.90;;;;;;5033213;28;20025;-77
2022/03/30 08:00:59;;;;;;;5.75;3.70;;;20.90;99.90;;;;;;5034505;28;20544;-76
2022/03/30 08:03:27;;;;;;;6.15;3.78;;;20.90;99.90;;;;;;5033172;28;20026;-77
2022/03/30 08:05:54;;;;;;;6.72;4.25;;;20.90;99.90;;;;;;5034375;28;20030;-77
2022/03/30 08:08:22;;;;;;;6.50;4.57;;;20.90;99.90;;;;;;5034415;28;20028;-77
2022/03/30 08:10:50;;;;;;;6.07;3.40;;;20.90;99.90;;;;;;5032970;28;20029;-77
2022/03/30 08:13:17;;;;;;;6.18;3.22;;;20.90;99.90;;;;;;5033104;28;20459;-77
2022/03/30 08:15:44;;;;;;;5.68;3.40;;;20.80;99.90;;;;;;5034217;28;20048;-77
2022/03/30 08:18:12;;;;;;;8.10;3.40;;;20.80;99.90;;;;;;5032722;28;20049;-77
2022/03/30 08:23:25;;;;;;;7.10;3.70;;;20.80;99.90;;;;;;5034679;28;20033;-77
2022/03/30 08:25:52;;;;;;;5.85;3.53;;;20.80;99.90;;;;;;5034204;28;20033;-76
2022/03/30 08:28:19;;;;;;;6.20;3.53;;;20.80;99.90;;;;;;5033965;28;20017;-77
2022/03/30 08:30:48;;;;;;;8.57;3.90;;;20.70;99.90;;;;;;5032682;28;20032;-78
2022/03/30 08:33:23;;;;;;;8.70;3.97;;;20.70;99.90;;;;;;5033975;28;20080;-78
2022/03/30 08:35:51;;;;;;;7.32;4.10;;;20.50;99.90;;;;;;5032690;28;20539;-77
2022/03/30 08:38:19;;;;;;;6.35;3.88;;;20.40;99.90;;;;;;5033194;28;20436;-77
2022/03/30 08:40:46;;;;;;;9.30;4.05;;;20.40;99.90;;;;;;5032540;28;20082;-77
2022/03/30 08:43:13;;;;;;;7.53;4.10;;;20.30;99.90;;;;;;5032587;28;20402;-76
2022/03/30 08:45:41;;;;;;;7.25;4.53;;;20.20;99.90;;;;;;5033798;28;20029;-76
2022/03/30 08:48:09;;;;;;;5.10;2.72;;;20.20;99.90;;;;;;5033713;28;20098;-76
2022/03/30 08:50:36;;;;;;;6.45;2.90;;;20.10;99.90;;;;;;5033235;28;20049;-76
2022/03/30 08:53:07;;;;;;;6.13;2.90;;;20.10;99.90;;;;;;5033722;28;20459;-76
2022/03/30 08:55:34;;;;;;;4.85;3.03;;;20.10;99.90;;;;;;5033738;28;20493;-76
2022/03/30 08:58:02;;;;;;;4.13;2.58;;;20.10;99.90;;;;;;5033626;28;20556;-76
2022/03/30 09:00:34;;;;;;;6.88;3.33;;;20.20;99.90;;;;;;5032257;28;20094;-76
2022/03/30 09:03:03;;;;;;;6.05;2.17;;;20.20;99.90;;;;;;5032291;28;20125;-76
2022/03/30 09:05:33;;;;;;;7.20;2.60;;;20.10;99.90;;;;;;5032022;28;20120;-76
2022/03/30 09:08:25;;;;;;;5.97;2.85;;;20.10;99.90;;;;;;5032057;28;20038;-78
2022/03/30 09:10:54;;;;;;;6.13;2.72;;;20.10;99.90;;;;;;5032147;28;20033;-78
2022/03/30 09:13:22;;;;;;;8.38;2.58;;;20.10;99.90;;;;;;5033313;28;20429;-78
2022/03/30 09:15:52;;;;;;;8.88;3.05;;;20.10;99.90;;;;;;5033300;28;20017;-78
2022/03/30 09:18:20;;;;;;;7.32;2.50;;;20.10;99.90;;;;;;5031777;28;20510;-76
2022/03/30 09:20:51;;;;;;;4.50;2.50;;;20.00;99.90;;;;;;5031914;28;20026;-76
2022/03/30 09:23:19;;;;;;;5.43;2.08;;;20.00;99.90;;;;;;5031899;28;20067;-76
2022/03/30 09:25:48;;;;;;;5.38;2.60;;;20.00;99.90;;;;;;5031937;28;20096;-76
2022/03/30 09:28:18;;;;;;;10.13;3.00;;;20.00;99.90;;;;;;5031670;28;20037;-76
2022/03/30 09:30:46;;;;;;;5.38;2.75;;;19.90;99.90;;;;;;5031795;28;20079;-76
2022/03/30 09:33:18;;;;;;;7.55;3.55;;;19.90;99.90;;;;;;5033053;28;20080;-76
2022/03/30 09:35:45;;;;;;;7.32;2.42;;;19.90;99.90;;;;;;5032996;28;20482;-76
2022/03/30 09:38:18;;;;;;;7.50;2.55;;;19.90;99.90;;;;;;5032786;28;20485;-75
2022/03/30 09:41:03;;;;;;;7.22;3.10;;;19.90;99.90;;;;;;5031663;28;20469;-76
2022/03/30 09:43:38;;;;;;;8.32;2.85;;;19.90;99.90;;;;;;5032821;28;20137;-75
2022/03/30 09:46:13;;;;;;;6.80;2.65;;;19.80;99.90;;;;;;5032758;28;20028;-76
2022/03/30 09:48:52;;;;;;;6.13;2.60;;;19.90;99.90;;;;;;5031459;28;20152;-76
2022/03/30 09:51:26;;;;;;;6.93;2.20;;;19.90;99.90;;;;;;5031516;28;20027;-76
2022/03/30 09:53:54;;;;;;;5.20;2.55;;;19.90;99.90;;;;;;5031362;28;20470;-76
2022/03/30 09:56:24;;;;;;;7.75;2.67;;;19.90;99.90;;;;;;5031360;28;20386;-76
2022/03/30 09:59:01;;;;;;;5.93;2.70;;;20.00;99.90;;;;;;5032641;28;20021;-77
2022/03/30 10:01:33;;;;;;;5.28;2.60;;;20.00;99.90;;;;;;5031321;28;20026;-77
2022/03/30 10:04:08;;;;;;;8.30;2.72;;;20.00;99.90;;;;;;5031224;28;20036;-77
2022/03/30 10:06:40;;;;;;;7.55;2.22;;;19.90;99.90;;;;;;5031221;28;20021;-77
2022/03/30 10:09:08;;;;;;;6.93;2.50;;;20.00;99.90;;;;;;5031193;28;20067;-78
2022/03/30 10:11:35;;;;;;;8.20;2.30;;;20.00;99.90;;;;;;5032464;28;20494;-77
2022/03/30 10:14:08;;;;;;;6.60;2.60;;;20.00;99.90;;;;;;5031118;28;20025;-78
2022/03/30 10:16:35;;;;;;;5.35;2.63;;;20.00;99.90;;;;;;5036126;28;20120;-78
2022/03/30 10:19:03;;;;;;;8.48;2.67;;;20.00;99.90;;;;;;5052335;28;20060;-77
2022/03/30 10:21:46;;;;;;;7.90;2.83;;;19.90;99.90;;;;;;5052251;28;20028;-77
2022/03/30 10:24:37;;;;;;;7.35;2.70;;;20.00;99.90;;;;;;5034294;28;20021;-77
2022/03/30 10:27:38;;;;;;;5.50;2.20;;;20.00;99.90;;;;;;5034322;28;20029;-77
2022/03/30 10:30:11;;;;;;;8.73;2.65;;;20.00;99.90;;;;;;5052329;28;20504;-77
2022/03/30 10:32:40;;;;;;;9.23;2.85;;;20.00;99.90;;;;;;5052167;28;20018;-77
2022/03/30 10:35:13;;;;;;;12.43;3.22;;;20.10;99.90;;;;;;5052141;28;20021;-78
2022/03/30 10:37:45;;;;;;;11.63;3.15;;;20.10;99.90;;;;;;5034062;28;20040;-77
2022/03/30 10:40:20;;;;;;;13.60;3.63;;;20.20;99.90;;;;;;5034243;28;20486;-77
2022/03/30 10:42:48;;;;;;;11.43;3.00;;;20.20;99.90;;;;;;5052169;28;20021;-77
2022/03/30 10:45:41;;;;;;;11.70;3.47;;;20.20;99.90;;;;;;5052069;28;20486;-78
2022/03/30 10:48:14;;;;;;;8.43;2.63;;;20.20;99.90;;;;;;5025129;28;20103;-78
2022/03/30 10:50:54;;;;;;;11.82;2.92;;;20.10;99.90;;;;;;5034088;28;20021;-79
2022/03/30 10:53:34;;;;;;;11.55;3.60;;;20.20;99.90;;;;;;5034148;28;20079;-79
2022/03/30 10:56:10;;;;;;;17.48;4.25;;;20.20;99.90;;;;;;5051967;28;20036;-78
2022/03/30 10:58:52;;;;;;;11.85;3.63;;;20.10;99.90;;;;;;5034022;28;20063;-78
2022/03/30 11:01:28;;;;;;;13.00;4.65;;;20.10;99.90;;;;;;5034958;28;20033;-79
2022/03/30 11:04:02;;;;;;;17.85;5.25;;;20.10;99.90;;;;;;5055801;28;20029;-78
2022/03/30 11:06:31;;;;;;;14.95;6.00;;;20.00;99.90;;;;;;5037955;28;20088;-78
2022/03/30 11:09:08;;;;;;;15.27;6.20;;;20.00;99.90;;;;;;5055824;28;20024;-78
2022/03/30 11:11:43;;;;;;;14.30;6.20;;;20.00;99.90;;;;;;5055599;28;20096;-78
2022/03/30 11:14:34;;;;;;;16.77;6.60;;;20.00;99.90;;;;;;5037480;28;20369;-77
2022/03/30 11:17:05;;;;;;;;;;;20.00;99.90;;;;;;5055664;28;20469;-78
2022/03/30 11:19:49;;;;;;;16.45;5.75;;;20.00;99.90;;;;;;5037403;28;19995;-77
2022/03/30 11:22:32;;;;;;;14.35;5.78;;;19.90;99.90;;;;;;5055323;28;20055;-77
2022/03/30 11:25:08;;;;;;;9.43;5.70;;;19.80;99.90;;;;;;5037656;28;20032;-77
2022/03/30 11:27:35;;;;;;;12.55;5.43;;;19.90;99.90;;;;;;5037297;28;20115;-78
2022/03/30 11:30:12;;;;;;;13.00;5.55;;;19.90;99.90;;;;;;5037253;28;20025;-78
2022/03/30 11:32:41;;;;;;;12.25;5.13;;;19.80;99.90;;;;;;5037291;28;20405;-77
2022/03/30 11:35:17;;;;;;;12.40;5.25;;;19.80;99.90;;;;;;5055194;28;20052;-78
2022/03/30 11:37:47;;;;;;;10.50;4.78;;;19.80;99.90;;;;;;5037787;28;20471;-78
2022/03/30 11:40:22;;;;;;;11.18;5.03;;;19.80;99.90;;;;;;5037165;28;20025;-78
2022/03/30 11:42:57;;;;;;;11.27;4.88;;;19.80;99.90;;;;;;5054814;28;20029;-78
2022/03/30 11:45:29;;;;;;;11.57;5.38;;;19.80;99.90;;;;;;5036664;28;20033;-78
2022/03/30 11:48:02;;;;;;;13.45;4.70;;;19.90;99.90;;;;;;5036569;28;20093;-78
2022/03/30 11:50:39;;;;;;;15.00;4.88;;;19.90;99.90;;;;;;5054664;28;20382;-78
2022/03/30 11:53:16;;;;;;;9.15;4.82;;;19.90;99.90;;;;;;5036702;28;20033;-78
2022/03/30 11:56:15;;;;;;;11.45;4.63;;;19.90;99.90;;;;;;5054545;28;20045;-79
2022/03/30 11:58:45;;;;;;;12.05;5.20;;;19.80;99.90;;;;;;4994312;28;20033;-78
2022/03/30 12:01:15;;;;;;;13.40;5.00;;;19.80;99.90;;;;;;5054586;28;20381;-79
2022/03/30 12:03:43;;;;;;;11.87;5.17;;;19.80;99.90;;;;;;5036828;28;20523;-79
2022/03/30 12:06:12;;;;;;;11.75;4.68;;;19.80;99.90;;;;;;5054896;28;20257;-79
2022/03/30 12:08:42;;;;;;;10.95;4.35;;;19.70;99.90;;;;;;5036645;28;20025;-79
2022/03/30 12:11:10;;;;;;;10.47;4.37;;;19.70;99.90;;;;;;5036846;28;20497;-79
2022/03/30 12:13:37;;;;;;;10.05;4.25;;;19.70;99.90;;;;;;5053496;28;20025;-79
2022/03/30 12:16:14;;;;;;;9.52;4.15;;;19.60;99.90;;;;;;5054852;28;20017;-79
2022/03/30 12:18:50;;;;;;;9.55;4.03;;;19.60;99.90;;;;;;5054403;28;20040;-78
2022/03/30 12:21:23;;;;;;;13.45;4.00;;;19.60;99.90;;;;;;5036409;28;20464;-78
2022/03/30 12:23:59;;;;;;;10.32;4.00;;;19.60;99.90;;;;;;5054195;28;20121;-79
2022/03/30 12:26:27;;;;;;;11.10;4.00;;;19.50;99.90;;;;;;5036308;28;20486;-78
2022/03/30 12:29:17;;;;;;;13.07;3.30;;;19.50;99.90;;;;;;5054079;28;20525;-79
2022/03/30 12:31:57;;;;;;;8.20;3.60;;;19.40;99.90;;;;;;5054123;28;20503;-78
2022/03/30 12:34:25;;;;;;;7.20;3.47;;;19.40;99.90;;;;;;5036177;28;20033;-78
2022/03/30 12:36:59;;;;;;;11.98;3.67;;;19.30;99.90;;;;;;5036024;28;20262;-78
2022/03/30 12:39:32;;;;;;;6.88;3.05;;;19.30;99.90;;;;;;5036192;28;20108;-77
2022/03/30 12:42:03;;;;;;;7.63;2.83;;;19.30;99.90;;;;;;5054226;28;20031;-78
2022/03/30 12:44:33;;;;;;;8.13;3.08;;;19.20;99.90;;;;;;5036090;28;20037;-78
2022/03/30 12:47:04;;;;;;;7.63;2.85;;;19.10;99.90;;;;;;5053983;28;20025;-79
2022/03/30 12:49:39;;;;;;;6.38;2.65;;;19.10;99.90;;;;;;5035841;28;20024;-79
2022/03/30 12:52:17;;;;;;;5.85;2.28;;;19.10;99.90;;;;;;5053810;28;20100;-78
2022/03/30 12:54:46;;;;;;;3.70;1.90;;;19.00;99.90;;;;;;5035598;28;20028;-79
2022/03/30 12:57:26;;;;;;;7.13;2.22;;;19.00;99.90;;;;;;5053609;28;20021;-77
2022/03/30 12:59:53;;;;;;;6.88;1.90;;;19.10;99.90;;;;;;5053579;28;20055;-77
2022/03/30 13:02:25;;;;;;;7.95;1.95;;;19.10;99.90;;;;;;5035451;28;20516;-78
2022/03/30 13:04:57;;;;;;;9.57;2.30;;;19.20;99.90;;;;;;5053387;28;20021;-79
2022/03/30 13:07:27;;;;;;;8.77;2.00;;;19.20;99.90;;;;;;5053269;28;20021;-79